sensor_id;sensor_type;location;lat;lon;timestamp;temperature;humidity
12853;DHT22;6495;51.808;7.478;2023-07-02T00:01:13;18.70;99.90
12853;DHT22;6495;51.808;7.478;2023-07-02T00:03:45;18.70;99.90
12853;DHT22;6495;51.808;7.478;2023-07-02T00:06:13;18.60;99.90
12853;DHT22;6495;51.808;7.478;2023-07-02T00:08:41;18.60;99.90
12853;DHT22;6495;51.808;7.478;2023-07-02T00:11:15;18.60;99.90
12853;DHT22;6495;51.808;7.478;2023-07-02T00:13:43;18.60;99.90
12853;DHT22;6495;51.808;7.478;2023-07-02T00:16:12;18.60;99.90
12853;DHT22;6495;51.808;7.478;2023-07-02T00:18:40;18.60;99.90
12853;DHT22;6495;51.808;7.478;2023-07-02T00:21:08;18.50;99.90
12853;DHT22;6495;51.808;7.478;2023-07-02T00:23:40;18.50;99.90
12853;DHT22;6495;51.808;7.478;2023-07-02T00:26:08;18.50;99.90
12853;DHT22;6495;51.808;7.478;2023-07-02T00:28:39;18.50;99.90
12853;DHT22;6495;51.808;7.478;2023-07-02T00:31:10;18.50;99.90
12853;DHT22;6495;51.808;7.478;2023-07-02T00:33:40;18.50;99.90
12853;DHT22;6495;51.808;7.478;2023-07-02T00:36:11;18.50;99.90
12853;DHT22;6495;51.808;7.478;2023-07-02T00:38:44;18.40;99.90
12853;DHT22;6495;51.808;7.478;2023-07-02T00:41:13;18.50;99.90
12853;DHT22;6495;51.808;7.478;2023-07-02T00:43:43;18.50;99.90
12853;DHT22;6495;51.808;7.478;2023-07-02T00:46:15;18.50;99.90
12853;DHT22;6495;51.808;7.478;2023-07-02T00:48:50;18.50;99.90
12853;DHT22;6495;51.808;7.478;2023-07-02T00:51:20;18.50;99.90
12853;DHT22;6495;51.808;7.478;2023-07-02T00:53:51;18.50;99.90
12853;DHT22;6495;51.808;7.478;2023-07-02T00:56:22;18.50;99.90
12853;DHT22;6495;51.808;7.478;2023-07-02T00:58:54;18.40;99.90
12853;DHT22;6495;51.808;7.478;2023-07-02T01:01:28;18.40;99.90
12853;DHT22;6495;51.808;7.478;2023-07-02T01:03:59;18.40;99.90
12853;DHT22;6495;51.808;7.478;2023-07-02T01:06:30;18.40;99.90
12853;DHT22;6495;51.808;7.478;2023-07-02T01:09:01;18.40;99.90
12853;DHT22;6495;51.808;7.478;2023-07-02T01:11:33;18.40;99.90
12853;DHT22;6495;51.808;7.478;2023-07-02T01:14:08;18.40;99.90
12853;DHT22;6495;51.808;7.478;2023-07-02T01:16:41;18.30;99.90
12853;DHT22;6495;51.808;7.478;2023-07-02T01:19:13;18.30;99.90
12853;DHT22;6495;51.808;7.478;2023-07-02T01:21:49;18.30;99.90
12853;DHT22;6495;51.808;7.478;2023-07-02T01:24:17;18.30;99.90
12853;DHT22;6495;51.808;7.478;2023-07-02T01:26:49;18.20;99.90
12853;DHT22;6495;51.808;7.478;2023-07-02T01:29:18;18.20;99.90
12853;DHT22;6495;51.808;7.478;2023-07-02T01:31:47;18.20;99.90
12853;DHT22;6495;51.808;7.478;2023-07-02T01:34:16;18.20;99.90
12853;DHT22;6495;51.808;7.478;2023-07-02T01:36:44;18.20;99.90
12853;DHT22;6495;51.808;7.478;2023-07-02T01:39:14;18.20;99.90
12853;DHT22;6495;51.808;7.478;2023-07-02T01:41:48;18.20;99.90
12853;DHT22;6495;51.808;7.478;2023-07-02T01:44:18;18.20;99.90
12853;DHT22;6495;51.808;7.478;2023-07-02T01:46:48;18.20;99.90
12853;DHT22;6495;51.808;7.478;2023-07-02T01:49:17;18.30;99.90
12853;DHT22;6495;51.808;7.478;2023-07-02T01:51:49;18.30;99.90
12853;DHT22;6495;51.808;7.478;2023-07-02T01:54:19;18.20;99.90
12853;DHT22;6495;51.808;7.478;2023-07-02T01:56:55;18.30;99.90
12853;DHT22;6495;51.808;7.478;2023-07-02T01:59:24;18.20;99.90
12853;DHT22;6495;51.808;7.478;2023-07-02T02:01:53;18.20;99.90
12853;DHT22;6495;51.808;7.478;2023-07-02T02:04:21;18.20;99.90
12853;DHT22;6495;51.808;7.478;2023-07-02T02:06:49;18.20;99.90
12853;DHT22;6495;51.808;7.478;2023-07-02T02:09:20;18.20;99.90
12853;DHT22;6495;51.808;7.478;2023-07-02T02:11:49;18.20;99.90
12853;DHT22;6495;51.808;7.478;2023-07-02T02:14:19;18.20;99.90
12853;DHT22;6495;51.808;7.478;2023-07-02T02:16:48;18.20;99.90
12853;DHT22;6495;51.808;7.478;2023-07-02T02:19:18;18.20;99.90
12853;DHT22;6495;51.808;7.478;2023-07-02T02:21:46;18.20;99.90
12853;DHT22;6495;51.808;7.478;2023-07-02T02:24:14;18.20;99.90
12853;DHT22;6495;51.808;7.478;2023-07-02T02:26:44;18.20;99.90
12853;DHT22;6495;51.808;7.478;2023-07-02T02:29:12;18.20;99.90
12853;DHT22;6495;51.808;7.478;2023-07-02T02:31:40;18.20;99.90
12853;DHT22;6495;51.808;7.478;2023-07-02T02:34:11;18.10;99.90
12853;DHT22;6495;51.808;7.478;2023-07-02T02:36:39;18.10;99.90
12853;DHT22;6495;51.808;7.478;2023-07-02T02:39:07;18.10;99.90
12853;DHT22;6495;51.808;7.478;2023-07-02T02:41:35;18.10;99.90
12853;DHT22;6495;51.808;7.478;2023-07-02T02:44:06;18.10;99.90
12853;DHT22;6495;51.808;7.478;2023-07-02T02:46:34;18.10;99.90
12853;DHT22;6495;51.808;7.478;2023-07-02T02:49:02;18.10;99.90
12853;DHT22;6495;51.808;7.478;2023-07-02T02:51:30;18.10;99.90
12853;DHT22;6495;51.808;7.478;2023-07-02T02:53:58;18.10;99.90
12853;DHT22;6495;51.808;7.478;2023-07-02T02:56:26;18.10;99.90
12853;DHT22;6495;51.808;7.478;2023-07-02T02:58:54;18.10;99.90
12853;DHT22;6495;51.808;7.478;2023-07-02T03:01:24;18.10;99.90
12853;DHT22;6495;51.808;7.478;2023-07-02T03:03:58;18.10;99.90
12853;DHT22;6495;51.808;7.478;2023-07-02T03:06:27;18.00;99.90
12853;DHT22;6495;51.808;7.478;2023-07-02T03:08:55;18.00;99.90
12853;DHT22;6495;51.808;7.478;2023-07-02T03:11:23;18.00;99.90
12853;DHT22;6495;51.808;7.478;2023-07-02T03:13:51;18.00;99.90
12853;DHT22;6495;51.808;7.478;2023-07-02T03:16:19;18.00;99.90
12853;DHT22;6495;51.808;7.478;2023-07-02T03:18:49;18.00;99.90
12853;DHT22;6495;51.808;7.478;2023-07-02T03:21:17;17.90;99.90
12853;DHT22;6495;51.808;7.478;2023-07-02T03:23:46;18.00;99.90
12853;DHT22;6495;51.808;7.478;2023-07-02T03:26:14;18.00;99.90
12853;DHT22;6495;51.808;7.478;2023-07-02T03:28:42;17.90;99.90
12853;DHT22;6495;51.808;7.478;2023-07-02T03:31:10;17.90;99.90
12853;DHT22;6495;51.808;7.478;2023-07-02T03:33:38;17.90;99.90
12853;DHT22;6495;51.808;7.478;2023-07-02T03:36:08;17.90;99.90
12853;DHT22;6495;51.808;7.478;2023-07-02T03:38:36;17.90;99.90
12853;DHT22;6495;51.808;7.478;2023-07-02T03:41:04;17.90;99.90
12853;DHT22;6495;51.808;7.478;2023-07-02T03:43:32;17.90;99.90
12853;DHT22;6495;51.808;7.478;2023-07-02T03:46:01;17.90;99.90
12853;DHT22;6495;51.808;7.478;2023-07-02T03:48:29;17.90;99.90
12853;DHT22;6495;51.808;7.478;2023-07-02T03:50:57;17.90;99.90
12853;DHT22;6495;51.808;7.478;2023-07-02T03:53:27;17.90;99.90
12853;DHT22;6495;51.808;7.478;2023-07-02T03:55:55;17.90;99.90
12853;DHT22;6495;51.808;7.478;2023-07-02T03:58:23;17.80;99.90
12853;DHT22;6495;51.808;7.478;2023-07-02T04:00:52;17.80;99.90
12853;DHT22;6495;51.808;7.478;2023-07-02T04:03:20;17.80;99.90
12853;DHT22;6495;51.808;7.478;2023-07-02T04:05:48;17.80;99.90
12853;DHT22;6495;51.808;7.478;2023-07-02T04:08:16;17.80;99.90
12853;DHT22;6495;51.808;7.478;2023-07-02T04:10:49;17.80;99.90
12853;DHT22;6495;51.808;7.478;2023-07-02T04:13:17;17.80;99.90
12853;DHT22;6495;51.808;7.478;2023-07-02T04:15:47;17.80;99.90
12853;DHT22;6495;51.808;7.478;2023-07-02T04:18:15;17.80;99.90
12853;DHT22;6495;51.808;7.478;2023-07-02T04:20:45;17.80;99.90
12853;DHT22;6495;51.808;7.478;2023-07-02T04:23:14;17.80;99.90
12853;DHT22;6495;51.808;7.478;2023-07-02T04:25:43;17.80;99.90
12853;DHT22;6495;51.808;7.478;2023-07-02T04:28:33;17.80;99.90
12853;DHT22;6495;51.808;7.478;2023-07-02T04:31:01;17.80;99.90
12853;DHT22;6495;51.808;7.478;2023-07-02T04:33:29;17.80;99.90
12853;DHT22;6495;51.808;7.478;2023-07-02T04:36:02;17.70;99.90
12853;DHT22;6495;51.808;7.478;2023-07-02T04:38:31;17.70;99.90
12853;DHT22;6495;51.808;7.478;2023-07-02T04:41:00;17.70;99.90
12853;DHT22;6495;51.808;7.478;2023-07-02T04:43:33;17.70;99.90
12853;DHT22;6495;51.808;7.478;2023-07-02T04:46:02;17.70;99.90
12853;DHT22;6495;51.808;7.478;2023-07-02T04:48:33;17.70;99.90
12853;DHT22;6495;51.808;7.478;2023-07-02T04:51:02;17.70;99.90
12853;DHT22;6495;51.808;7.478;2023-07-02T04:53:30;17.70;99.90
12853;DHT22;6495;51.808;7.478;2023-07-02T04:56:01;17.70;99.90
12853;DHT22;6495;51.808;7.478;2023-07-02T04:58:29;17.70;99.90
12853;DHT22;6495;51.808;7.478;2023-07-02T05:00:58;17.70;99.90
12853;DHT22;6495;51.808;7.478;2023-07-02T05:03:27;17.70;99.90
12853;DHT22;6495;51.808;7.478;2023-07-02T05:05:55;17.70;99.90
12853;DHT22;6495;51.808;7.478;2023-07-02T05:08:23;17.70;99.90
12853;DHT22;6495;51.808;7.478;2023-07-02T05:10:51;17.70;99.90
12853;DHT22;6495;51.808;7.478;2023-07-02T05:13:19;17.70;99.90
12853;DHT22;6495;51.808;7.478;2023-07-02T05:15:48;17.70;99.90
12853;DHT22;6495;51.808;7.478;2023-07-02T05:18:17;17.70;99.90
12853;DHT22;6495;51.808;7.478;2023-07-02T05:20:45;17.70;99.90
12853;DHT22;6495;51.808;7.478;2023-07-02T05:23:14;17.70;99.90
12853;DHT22;6495;51.808;7.478;2023-07-02T05:25:42;17.70;99.90
12853;DHT22;6495;51.808;7.478;2023-07-02T05:28:11;17.80;99.90
12853;DHT22;6495;51.808;7.478;2023-07-02T05:30:39;17.80;99.90
12853;DHT22;6495;51.808;7.478;2023-07-02T05:33:09;17.80;99.90
12853;DHT22;6495;51.808;7.478;2023-07-02T05:35:38;17.80;99.90
12853;DHT22;6495;51.808;7.478;2023-07-02T05:38:06;17.80;99.90
12853;DHT22;6495;51.808;7.478;2023-07-02T05:40:35;17.80;99.90
12853;DHT22;6495;51.808;7.478;2023-07-02T05:43:03;17.80;99.90
12853;DHT22;6495;51.808;7.478;2023-07-02T05:45:31;17.80;99.90
12853;DHT22;6495;51.808;7.478;2023-07-02T05:47:59;17.90;99.90
12853;DHT22;6495;51.808;7.478;2023-07-02T05:50:27;17.90;99.90
12853;DHT22;6495;51.808;7.478;2023-07-02T05:52:57;17.90;99.90
12853;DHT22;6495;51.808;7.478;2023-07-02T05:55:25;17.90;99.90
12853;DHT22;6495;51.808;7.478;2023-07-02T05:57:53;18.00;99.90
12853;DHT22;6495;51.808;7.478;2023-07-02T06:00:28;18.00;99.90
12853;DHT22;6495;51.808;7.478;2023-07-02T06:02:56;18.10;99.90
12853;DHT22;6495;51.808;7.478;2023-07-02T06:05:24;18.10;99.90
12853;DHT22;6495;51.808;7.478;2023-07-02T06:07:53;18.10;99.90
12853;DHT22;6495;51.808;7.478;2023-07-02T06:10:22;18.20;99.90
12853;DHT22;6495;51.808;7.478;2023-07-02T06:12:51;18.30;99.90
12853;DHT22;6495;51.808;7.478;2023-07-02T06:15:19;18.40;99.90
12853;DHT22;6495;51.808;7.478;2023-07-02T06:17:47;18.40;99.90
12853;DHT22;6495;51.808;7.478;2023-07-02T06:20:15;18.40;99.90
12853;DHT22;6495;51.808;7.478;2023-07-02T06:22:44;18.50;99.90
12853;DHT22;6495;51.808;7.478;2023-07-02T06:25:13;18.60;99.90
12853;DHT22;6495;51.808;7.478;2023-07-02T06:27:43;18.70;99.90
12853;DHT22;6495;51.808;7.478;2023-07-02T06:30:11;18.80;99.90
12853;DHT22;6495;51.808;7.478;2023-07-02T06:32:40;18.90;99.90
12853;DHT22;6495;51.808;7.478;2023-07-02T06:35:08;19.00;99.90
12853;DHT22;6495;51.808;7.478;2023-07-02T06:37:36;19.00;99.90
12853;DHT22;6495;51.808;7.478;2023-07-02T06:40:06;19.10;99.90
12853;DHT22;6495;51.808;7.478;2023-07-02T06:42:35;19.10;99.90
12853;DHT22;6495;51.808;7.478;2023-07-02T06:45:06;19.20;99.90
12853;DHT22;6495;51.808;7.478;2023-07-02T06:47:35;19.30;99.90
12853;DHT22;6495;51.808;7.478;2023-07-02T06:50:11;19.40;99.90
12853;DHT22;6495;51.808;7.478;2023-07-02T06:52:39;19.40;99.90
12853;DHT22;6495;51.808;7.478;2023-07-02T06:55:10;19.50;99.90
12853;DHT22;6495;51.808;7.478;2023-07-02T06:57:42;19.50;99.90
12853;DHT22;6495;51.808;7.478;2023-07-02T07:00:14;19.60;99.90
12853;DHT22;6495;51.808;7.478;2023-07-02T07:02:42;19.60;99.90
12853;DHT22;6495;51.808;7.478;2023-07-02T07:05:11;19.60;99.90
12853;DHT22;6495;51.808;7.478;2023-07-02T07:07:39;19.60;99.90
12853;DHT22;6495;51.808;7.478;2023-07-02T07:10:09;19.60;99.90
12853;DHT22;6495;51.808;7.478;2023-07-02T07:12:40;19.60;99.90
12853;DHT22;6495;51.808;7.478;2023-07-02T07:15:08;19.60;99.90
12853;DHT22;6495;51.808;7.478;2023-07-02T07:17:38;19.70;99.90
12853;DHT22;6495;51.808;7.478;2023-07-02T07:20:07;19.70;99.90
12853;DHT22;6495;51.808;7.478;2023-07-02T07:22:36;19.80;99.90
12853;DHT22;6495;51.808;7.478;2023-07-02T07:25:05;19.80;99.90
12853;DHT22;6495;51.808;7.478;2023-07-02T07:27:33;19.90;99.90
12853;DHT22;6495;51.808;7.478;2023-07-02T07:30:16;20.00;99.90
12853;DHT22;6495;51.808;7.478;2023-07-02T07:33:18;20.10;99.90
12853;DHT22;6495;51.808;7.478;2023-07-02T07:35:49;20.10;99.90
12853;DHT22;6495;51.808;7.478;2023-07-02T07:38:17;20.10;99.90
12853;DHT22;6495;51.808;7.478;2023-07-02T07:40:46;20.10;99.90
12853;DHT22;6495;51.808;7.478;2023-07-02T07:43:14;20.10;99.90
12853;DHT22;6495;51.808;7.478;2023-07-02T07:45:45;20.10;99.90
12853;DHT22;6495;51.808;7.478;2023-07-02T07:48:15;20.10;99.90
12853;DHT22;6495;51.808;7.478;2023-07-02T07:50:44;20.10;99.90
12853;DHT22;6495;51.808;7.478;2023-07-02T07:53:13;20.10;99.90
12853;DHT22;6495;51.808;7.478;2023-07-02T07:55:43;20.10;99.90
12853;DHT22;6495;51.808;7.478;2023-07-02T07:58:11;20.10;99.90
12853;DHT22;6495;51.808;7.478;2023-07-02T08:00:39;20.00;99.90
12853;DHT22;6495;51.808;7.478;2023-07-02T08:03:07;20.10;99.90
12853;DHT22;6495;51.808;7.478;2023-07-02T08:05:37;20.10;99.90
12853;DHT22;6495;51.808;7.478;2023-07-02T08:08:07;20.10;99.90
12853;DHT22;6495;51.808;7.478;2023-07-02T08:10:35;20.10;99.90
12853;DHT22;6495;51.808;7.478;2023-07-02T08:13:03;20.10;99.90
12853;DHT22;6495;51.808;7.478;2023-07-02T08:15:34;20.20;99.90
12853;DHT22;6495;51.808;7.478;2023-07-02T08:18:03;20.20;99.90
12853;DHT22;6495;51.808;7.478;2023-07-02T08:20:33;20.30;99.90
12853;DHT22;6495;51.808;7.478;2023-07-02T08:23:01;20.30;99.90
12853;DHT22;6495;51.808;7.478;2023-07-02T08:25:31;20.40;99.90
12853;DHT22;6495;51.808;7.478;2023-07-02T08:27:59;20.50;99.90
12853;DHT22;6495;51.808;7.478;2023-07-02T08:30:27;20.50;99.90
12853;DHT22;6495;51.808;7.478;2023-07-02T08:32:55;20.60;99.90
12853;DHT22;6495;51.808;7.478;2023-07-02T08:35:24;20.60;99.90
12853;DHT22;6495;51.808;7.478;2023-07-02T08:37:52;20.60;99.90
12853;DHT22;6495;51.808;7.478;2023-07-02T08:40:20;20.60;99.90
12853;DHT22;6495;51.808;7.478;2023-07-02T08:42:50;20.60;99.90
12853;DHT22;6495;51.808;7.478;2023-07-02T08:45:18;20.70;99.90
12853;DHT22;6495;51.808;7.478;2023-07-02T08:47:50;20.70;99.90
12853;DHT22;6495;51.808;7.478;2023-07-02T08:50:22;20.80;99.90
12853;DHT22;6495;51.808;7.478;2023-07-02T08:52:50;20.80;99.90
12853;DHT22;6495;51.808;7.478;2023-07-02T08:55:20;20.80;99.90
12853;DHT22;6495;51.808;7.478;2023-07-02T08:57:53;20.80;99.90
12853;DHT22;6495;51.808;7.478;2023-07-02T09:00:22;20.90;99.90
12853;DHT22;6495;51.808;7.478;2023-07-02T09:02:51;20.90;99.90
12853;DHT22;6495;51.808;7.478;2023-07-02T09:05:19;20.90;99.90
12853;DHT22;6495;51.808;7.478;2023-07-02T09:07:49;20.90;99.90
12853;DHT22;6495;51.808;7.478;2023-07-02T09:10:28;20.90;99.90
12853;DHT22;6495;51.808;7.478;2023-07-02T09:13:05;21.00;99.90
12853;DHT22;6495;51.808;7.478;2023-07-02T09:15:37;21.10;99.90
12853;DHT22;6495;51.808;7.478;2023-07-02T09:18:16;21.20;99.90
12853;DHT22;6495;51.808;7.478;2023-07-02T09:20:50;21.20;99.90
12853;DHT22;6495;51.808;7.478;2023-07-02T09:23:20;21.30;99.90
12853;DHT22;6495;51.808;7.478;2023-07-02T09:25:51;21.40;99.90
12853;DHT22;6495;51.808;7.478;2023-07-02T09:28:21;21.40;99.90
12853;DHT22;6495;51.808;7.478;2023-07-02T09:30:52;21.40;99.90
12853;DHT22;6495;51.808;7.478;2023-07-02T09:33:23;21.50;99.90
12853;DHT22;6495;51.808;7.478;2023-07-02T09:35:52;21.50;99.90
12853;DHT22;6495;51.808;7.478;2023-07-02T09:38:22;21.50;99.80
12853;DHT22;6495;51.808;7.478;2023-07-02T09:40:51;21.50;99.70
12853;DHT22;6495;51.808;7.478;2023-07-02T09:43:21;21.50;99.40
12853;DHT22;6495;51.808;7.478;2023-07-02T09:45:54;21.50;99.70
12853;DHT22;6495;51.808;7.478;2023-07-02T09:48:27;21.50;99.50
12853;DHT22;6495;51.808;7.478;2023-07-02T09:51:02;21.50;99.50
12853;DHT22;6495;51.808;7.478;2023-07-02T09:53:31;21.50;98.90
12853;DHT22;6495;51.808;7.478;2023-07-02T09:55:59;21.50;99.00
12853;DHT22;6495;51.808;7.478;2023-07-02T09:58:29;21.50;99.30
12853;DHT22;6495;51.808;7.478;2023-07-02T10:00:58;21.50;99.00
12853;DHT22;6495;51.808;7.478;2023-07-02T10:03:30;21.50;99.00
12853;DHT22;6495;51.808;7.478;2023-07-02T10:06:06;21.50;98.50
12853;DHT22;6495;51.808;7.478;2023-07-02T10:08:37;21.30;96.70
12853;DHT22;6495;51.808;7.478;2023-07-02T10:11:09;21.30;98.10
12853;DHT22;6495;51.808;7.478;2023-07-02T10:13:39;21.30;98.20
12853;DHT22;6495;51.808;7.478;2023-07-02T10:16:08;21.30;98.00
12853;DHT22;6495;51.808;7.478;2023-07-02T10:18:36;21.30;98.20
12853;DHT22;6495;51.808;7.478;2023-07-02T10:21:15;21.30;98.30
12853;DHT22;6495;51.808;7.478;2023-07-02T10:23:44;21.40;97.50
12853;DHT22;6495;51.808;7.478;2023-07-02T10:26:15;21.40;98.30
12853;DHT22;6495;51.808;7.478;2023-07-02T10:28:57;21.50;98.10
12853;DHT22;6495;51.808;7.478;2023-07-02T10:31:25;21.50;97.30
12853;DHT22;6495;51.808;7.478;2023-07-02T10:33:54;21.50;97.90
12853;DHT22;6495;51.808;7.478;2023-07-02T10:36:26;21.60;97.90
12853;DHT22;6495;51.808;7.478;2023-07-02T10:39:01;21.60;98.10
12853;DHT22;6495;51.808;7.478;2023-07-02T10:41:31;21.70;97.70
12853;DHT22;6495;51.808;7.478;2023-07-02T10:44:08;21.70;98.20
12853;DHT22;6495;51.808;7.478;2023-07-02T10:46:43;21.80;97.80
12853;DHT22;6495;51.808;7.478;2023-07-02T10:49:12;22.00;98.40
12853;DHT22;6495;51.808;7.478;2023-07-02T10:51:40;22.10;98.40
12853;DHT22;6495;51.808;7.478;2023-07-02T10:54:08;22.20;98.00
12853;DHT22;6495;51.808;7.478;2023-07-02T10:56:36;22.20;97.80
12853;DHT22;6495;51.808;7.478;2023-07-02T10:59:08;22.20;97.30
12853;DHT22;6495;51.808;7.478;2023-07-02T11:01:38;22.20;97.40
12853;DHT22;6495;51.808;7.478;2023-07-02T11:04:07;22.20;97.20
12853;DHT22;6495;51.808;7.478;2023-07-02T11:06:36;22.20;96.70
12853;DHT22;6495;51.808;7.478;2023-07-02T11:09:15;22.10;96.70
12853;DHT22;6495;51.808;7.478;2023-07-02T11:11:51;22.10;95.40
12853;DHT22;6495;51.808;7.478;2023-07-02T11:14:29;22.10;96.00
12853;DHT22;6495;51.808;7.478;2023-07-02T11:16:59;22.10;96.30
12853;DHT22;6495;51.808;7.478;2023-07-02T11:19:30;22.10;96.30
12853;DHT22;6495;51.808;7.478;2023-07-02T11:21:58;22.10;96.10
12853;DHT22;6495;51.808;7.478;2023-07-02T11:24:29;22.10;95.80
12853;DHT22;6495;51.808;7.478;2023-07-02T11:27:04;22.20;96.00
12853;DHT22;6495;51.808;7.478;2023-07-02T11:29:35;22.20;95.70
12853;DHT22;6495;51.808;7.478;2023-07-02T11:32:07;22.30;95.70
12853;DHT22;6495;51.808;7.478;2023-07-02T11:34:37;22.30;95.00
12853;DHT22;6495;51.808;7.478;2023-07-02T11:37:06;22.30;95.30
12853;DHT22;6495;51.808;7.478;2023-07-02T11:39:34;22.40;94.90
12853;DHT22;6495;51.808;7.478;2023-07-02T11:42:03;22.40;94.30
12853;DHT22;6495;51.808;7.478;2023-07-02T11:44:31;22.50;94.40
12853;DHT22;6495;51.808;7.478;2023-07-02T11:47:01;22.50;94.80
12853;DHT22;6495;51.808;7.478;2023-07-02T11:49:32;22.60;94.40
12853;DHT22;6495;51.808;7.478;2023-07-02T11:52:00;22.70;94.00
12853;DHT22;6495;51.808;7.478;2023-07-02T11:54:31;22.70;93.70
12853;DHT22;6495;51.808;7.478;2023-07-02T11:56:59;22.70;93.90
12853;DHT22;6495;51.808;7.478;2023-07-02T11:59:27;22.70;93.70
12853;DHT22;6495;51.808;7.478;2023-07-02T12:01:58;22.80;93.70
12853;DHT22;6495;51.808;7.478;2023-07-02T12:04:27;22.80;93.60
12853;DHT22;6495;51.808;7.478;2023-07-02T12:06:56;22.90;93.50
12853;DHT22;6495;51.808;7.478;2023-07-02T12:09:27;22.90;93.30
12853;DHT22;6495;51.808;7.478;2023-07-02T12:11:58;23.00;93.20
12853;DHT22;6495;51.808;7.478;2023-07-02T12:14:26;23.10;92.80
12853;DHT22;6495;51.808;7.478;2023-07-02T12:16:54;23.20;91.80
12853;DHT22;6495;51.808;7.478;2023-07-02T12:19:25;23.20;91.40
12853;DHT22;6495;51.808;7.478;2023-07-02T12:21:54;23.20;91.00
12853;DHT22;6495;51.808;7.478;2023-07-02T12:24:22;23.20;90.70
12853;DHT22;6495;51.808;7.478;2023-07-02T12:26:50;23.20;90.90
12853;DHT22;6495;51.808;7.478;2023-07-02T12:29:18;23.30;90.90
12853;DHT22;6495;51.808;7.478;2023-07-02T12:31:46;23.30;90.90
12853;DHT22;6495;51.808;7.478;2023-07-02T12:34:15;23.40;90.50
12853;DHT22;6495;51.808;7.478;2023-07-02T12:36:43;23.40;90.30
12853;DHT22;6495;51.808;7.478;2023-07-02T12:39:13;23.50;90.50
12853;DHT22;6495;51.808;7.478;2023-07-02T12:41:45;23.60;90.40
12853;DHT22;6495;51.808;7.478;2023-07-02T12:44:13;23.60;90.40
12853;DHT22;6495;51.808;7.478;2023-07-02T12:46:41;23.70;90.90
12853;DHT22;6495;51.808;7.478;2023-07-02T12:49:13;23.70;90.30
12853;DHT22;6495;51.808;7.478;2023-07-02T12:51:44;23.70;90.10
12853;DHT22;6495;51.808;7.478;2023-07-02T12:54:14;23.80;89.60
12853;DHT22;6495;51.808;7.478;2023-07-02T12:56:43;23.90;89.40
12853;DHT22;6495;51.808;7.478;2023-07-02T12:59:11;23.90;88.70
12853;DHT22;6495;51.808;7.478;2023-07-02T13:01:39;24.00;89.80
12853;DHT22;6495;51.808;7.478;2023-07-02T13:04:07;24.10;88.60
12853;DHT22;6495;51.808;7.478;2023-07-02T13:06:35;24.10;87.90
12853;DHT22;6495;51.808;7.478;2023-07-02T13:09:07;24.00;87.50
12853;DHT22;6495;51.808;7.478;2023-07-02T13:11:37;24.00;88.20
12853;DHT22;6495;51.808;7.478;2023-07-02T13:14:05;23.90;87.60
12853;DHT22;6495;51.808;7.478;2023-07-02T13:16:33;23.90;86.90
12853;DHT22;6495;51.808;7.478;2023-07-02T13:19:01;23.90;87.70
12853;DHT22;6495;51.808;7.478;2023-07-02T13:21:30;23.80;87.10
12853;DHT22;6495;51.808;7.478;2023-07-02T13:23:58;23.80;87.20
12853;DHT22;6495;51.808;7.478;2023-07-02T13:26:26;23.80;87.50
12853;DHT22;6495;51.808;7.478;2023-07-02T13:28:55;23.70;87.20
12853;DHT22;6495;51.808;7.478;2023-07-02T13:31:24;23.70;87.80
12853;DHT22;6495;51.808;7.478;2023-07-02T13:33:52;23.70;87.70
12853;DHT22;6495;51.808;7.478;2023-07-02T13:36:20;23.80;86.90
12853;DHT22;6495;51.808;7.478;2023-07-02T13:38:48;23.80;87.50
12853;DHT22;6495;51.808;7.478;2023-07-02T13:41:16;23.80;87.10
12853;DHT22;6495;51.808;7.478;2023-07-02T13:43:44;23.90;87.30
12853;DHT22;6495;51.808;7.478;2023-07-02T13:46:17;23.90;86.40
12853;DHT22;6495;51.808;7.478;2023-07-02T13:48:45;23.90;86.50
12853;DHT22;6495;51.808;7.478;2023-07-02T13:51:13;24.00;85.40
12853;DHT22;6495;51.808;7.478;2023-07-02T13:53:44;23.90;85.30
12853;DHT22;6495;51.808;7.478;2023-07-02T13:56:13;23.90;85.40
12853;DHT22;6495;51.808;7.478;2023-07-02T13:59:04;23.90;85.10
12853;DHT22;6495;51.808;7.478;2023-07-02T14:01:33;23.90;83.80
12853;DHT22;6495;51.808;7.478;2023-07-02T14:04:01;23.90;86.50
12853;DHT22;6495;51.808;7.478;2023-07-02T14:06:30;23.90;86.70
12853;DHT22;6495;51.808;7.478;2023-07-02T14:08:59;24.00;87.00
12853;DHT22;6495;51.808;7.478;2023-07-02T14:11:28;24.00;87.20
12853;DHT22;6495;51.808;7.478;2023-07-02T14:13:56;24.10;86.50
12853;DHT22;6495;51.808;7.478;2023-07-02T14:16:26;24.10;86.30
12853;DHT22;6495;51.808;7.478;2023-07-02T14:18:54;24.10;85.90
12853;DHT22;6495;51.808;7.478;2023-07-02T14:21:22;24.20;86.40
12853;DHT22;6495;51.808;7.478;2023-07-02T14:23:50;24.20;86.50
12853;DHT22;6495;51.808;7.478;2023-07-02T14:26:21;24.20;86.00
12853;DHT22;6495;51.808;7.478;2023-07-02T14:28:50;24.20;86.30
12853;DHT22;6495;51.808;7.478;2023-07-02T14:31:18;24.20;85.70
12853;DHT22;6495;51.808;7.478;2023-07-02T14:33:49;24.20;85.40
12853;DHT22;6495;51.808;7.478;2023-07-02T14:36:18;24.20;85.70
12853;DHT22;6495;51.808;7.478;2023-07-02T14:38:46;24.20;86.30
12853;DHT22;6495;51.808;7.478;2023-07-02T14:41:14;24.20;85.20
12853;DHT22;6495;51.808;7.478;2023-07-02T14:43:42;24.20;84.70
12853;DHT22;6495;51.808;7.478;2023-07-02T14:46:13;24.20;84.60
12853;DHT22;6495;51.808;7.478;2023-07-02T14:48:41;24.20;83.50
12853;DHT22;6495;51.808;7.478;2023-07-02T14:51:11;24.20;83.50
12853;DHT22;6495;51.808;7.478;2023-07-02T14:53:56;24.20;83.30
12853;DHT22;6495;51.808;7.478;2023-07-02T14:56:28;24.20;83.20
12853;DHT22;6495;51.808;7.478;2023-07-02T14:58:58;24.20;83.00
12853;DHT22;6495;51.808;7.478;2023-07-02T15:01:29;24.20;82.80
12853;DHT22;6495;51.808;7.478;2023-07-02T15:03:58;24.20;81.80
12853;DHT22;6495;51.808;7.478;2023-07-02T15:06:30;24.20;81.70
12853;DHT22;6495;51.808;7.478;2023-07-02T15:09:03;24.20;81.80
12853;DHT22;6495;51.808;7.478;2023-07-02T15:11:31;24.10;81.00
12853;DHT22;6495;51.808;7.478;2023-07-02T15:14:00;24.10;81.60
12853;DHT22;6495;51.808;7.478;2023-07-02T15:16:28;24.10;81.50
12853;DHT22;6495;51.808;7.478;2023-07-02T15:18:58;24.20;81.80
12853;DHT22;6495;51.808;7.478;2023-07-02T15:21:27;24.10;80.70
12853;DHT22;6495;51.808;7.478;2023-07-02T15:23:58;24.10;80.80
12853;DHT22;6495;51.808;7.478;2023-07-02T15:26:26;24.00;80.20
12853;DHT22;6495;51.808;7.478;2023-07-02T15:28:59;24.00;81.00
12853;DHT22;6495;51.808;7.478;2023-07-02T15:31:27;24.00;81.10
12853;DHT22;6495;51.808;7.478;2023-07-02T15:33:56;23.90;80.60
12853;DHT22;6495;51.808;7.478;2023-07-02T15:36:24;23.90;80.60
12853;DHT22;6495;51.808;7.478;2023-07-02T15:38:52;23.90;80.10
12853;DHT22;6495;51.808;7.478;2023-07-02T15:41:22;23.90;80.70
12853;DHT22;6495;51.808;7.478;2023-07-02T15:43:50;23.90;80.90
12853;DHT22;6495;51.808;7.478;2023-07-02T15:46:20;24.00;80.80
12853;DHT22;6495;51.808;7.478;2023-07-02T15:48:48;24.00;80.80
12853;DHT22;6495;51.808;7.478;2023-07-02T15:51:17;24.00;80.90
12853;DHT22;6495;51.808;7.478;2023-07-02T15:53:46;24.10;81.00
12853;DHT22;6495;51.808;7.478;2023-07-02T15:56:14;24.10;80.60
12853;DHT22;6495;51.808;7.478;2023-07-02T15:58:45;24.10;80.10
12853;DHT22;6495;51.808;7.478;2023-07-02T16:01:15;24.00;79.90